Time;durP1;ratioP1;P1;durP2;ratioP2;P2;SDS_P1;SDS_P2;PMS_P1;PMS_P2;Temp;Humidity;BMP_temperature;BMP_pressure;BME280_temperature;BME280_humidity;BME280_pressure;Samples;Min_cycle;Max_cycle;Signal;HPM_P1;HPM_P2
2022/09/13 00:00:13;;;;;;;26.98;10.18;;;;;;;;;;4969977;28;20055;-66
2022/09/13 00:02:44;;;;;;;25.50;10.50;;;;;;;;;;4969983;28;20053;-66
2022/09/13 00:05:14;;;;;;;22.90;10.27;;;;;;;;;;4969899;28;20051;-66
2022/09/13 00:07:44;;;;;;;25.55;9.02;;;;;;;;;;4954361;28;20144;-66
2022/09/13 00:10:15;;;;;;;23.83;10.02;;;;;;;;;;4969806;28;20073;-66
2022/09/13 00:12:47;;;;;;;23.08;10.02;;;;;;;;;;4960509;28;20491;-66
2022/09/13 00:15:17;;;;;;;23.27;9.82;;;;;;;;;;4950590;28;20412;-66
2022/09/13 00:17:47;;;;;;;24.67;10.65;;;;;;;;;;4940169;28;20079;-66
2022/09/13 00:20:17;;;;;;;26.70;10.32;;;;;;;;;;4950488;28;20059;-66
2022/09/13 00:22:48;;;;;;;25.85;10.35;;;;;;;;;;4896176;29;20068;-66
2022/09/13 00:25:18;;;;;;;22.95;9.65;;;;;;;;;;4880956;29;20052;-66
2022/09/13 00:27:48;;;;;;;24.38;10.38;;;;;;;;;;4896689;29;20067;-67
2022/09/13 00:30:18;;;;;;;22.67;10.18;;;;;;;;;;4931140;29;20090;-66
2022/09/13 00:32:49;;;;;;;26.10;10.52;;;;;;;;;;4950376;29;20547;-66
2022/09/13 00:35:20;;;;;;;24.80;11.15;;;;;;;;;;4950394;29;20062;-66
2022/09/13 00:37:50;;;;;;;26.98;11.45;;;;;;;;;;4950237;29;20066;-69
2022/09/13 00:40:21;;;;;;;27.73;11.68;;;;;;;;;;4952537;28;20055;-66
2022/09/13 00:42:53;;;;;;;26.15;11.23;;;;;;;;;;4915340;29;20500;-66
2022/09/13 00:45:23;;;;;;;24.38;11.40;;;;;;;;;;4915691;29;20067;-67
2022/09/13 00:48:06;;;;;;;26.00;10.43;;;;;;;;;;4915398;29;20087;-66
2022/09/13 00:50:50;;;;;;;28.02;10.50;;;;;;;;;;4895150;29;20472;-67
2022/09/13 00:53:25;;;;;;;27.17;10.55;;;;;;;;;;4918612;29;20512;-66
2022/09/13 00:56:10;;;;;;;26.45;10.38;;;;;;;;;;4938272;28;20439;-66
2022/09/13 00:58:48;;;;;;;26.40;10.43;;;;;;;;;;4959816;28;20046;-66
2022/09/13 01:01:22;;;;;;;26.92;10.65;;;;;;;;;;4975469;28;20042;-66
2022/09/13 01:03:53;;;;;;;24.55;10.20;;;;;;;;;;4959924;28;20050;-66
2022/09/13 01:06:31;;;;;;;24.20;10.55;;;;;;;;;;4975523;28;20404;-66
2022/09/13 01:09:03;;;;;;;26.55;11.23;;;;;;;;;;4959975;28;20050;-66
2022/09/13 01:11:42;;;;;;;26.35;10.65;;;;;;;;;;4991892;28;20066;-66
2022/09/13 01:14:13;;;;;;;29.58;12.13;;;;;;;;;;4991967;28;20430;-66
2022/09/13 01:16:44;;;;;;;28.15;11.38;;;;;;;;;;4991886;28;20043;-66
2022/09/13 01:19:17;;;;;;;28.35;11.57;;;;;;;;;;4991810;28;20061;-66
2022/09/13 01:22:01;;;;;;;27.80;11.35;;;;;;;;;;5030745;28;20049;-67
2022/09/13 01:24:56;;;;;;;29.58;11.32;;;;;;;;;;4991427;28;20058;-66
2022/09/13 01:27:43;;;;;;;28.00;12.35;;;;;;;;;;4959548;28;20053;-67
2022/09/13 01:30:23;;;;;;;25.98;11.30;;;;;;;;;;4991607;28;20069;-66
2022/09/13 01:32:56;;;;;;;27.92;12.02;;;;;;;;;;4991278;28;20379;-66
2022/09/13 01:35:51;;;;;;;28.67;13.00;;;;;;;;;;4943592;28;20043;-65
2022/09/13 01:38:35;;;;;;;28.48;12.35;;;;;;;;;;4991374;28;20054;-67
2022/09/13 01:41:08;;;;;;;28.83;11.82;;;;;;;;;;4971830;28;20050;-66
2022/09/13 01:43:57;;;;;;;29.55;12.43;;;;;;;;;;4990936;28;20049;-66
2022/09/13 01:46:59;;;;;;;28.10;12.32;;;;;;;;;;4991204;28;20403;-66
2022/09/13 01:50:03;;;;;;;25.77;11.15;;;;;;;;;;4970485;28;20047;-65
2022/09/13 01:52:49;;;;;;;;;;;;;;;;;;4955458;28;20055;-65
2022/09/13 01:55:34;;;;;;;30.52;11.80;;;;;;;;;;4971539;28;20290;-66
2022/09/13 01:58:15;;;;;;;30.73;11.85;;;;;;;;;;4952424;28;20075;-65
2022/09/13 02:01:14;;;;;;;32.80;12.75;;;;;;;;;;4952168;28;20054;-65
2022/09/13 02:04:22;;;;;;;29.58;12.95;;;;;;;;;;4971723;28;20058;-65
2022/09/13 02:07:13;;;;;;;31.73;12.52;;;;;;;;;;4971551;28;20059;-65
2022/09/13 02:09:49;;;;;;;29.30;12.18;;;;;;;;;;4971567;28;20430;-66
2022/09/13 02:12:22;;;;;;;31.20;12.63;;;;;;;;;;4951909;29;20059;-64
2022/09/13 02:15:03;;;;;;;27.77;12.02;;;;;;;;;;4951422;28;20054;-65
2022/09/13 02:17:39;;;;;;;27.48;11.68;;;;;;;;;;4952574;28;20055;-66
2022/09/13 02:20:18;;;;;;;29.65;12.90;;;;;;;;;;4950574;29;20251;-65
2022/09/13 02:22:53;;;;;;;30.77;12.13;;;;;;;;;;4913882;29;20060;-65
2022/09/13 02:25:27;;;;;;;32.83;13.07;;;;;;;;;;4913390;29;20548;-65
2022/09/13 02:28:01;;;;;;;26.88;12.15;;;;;;;;;;4929708;29;20196;-65
2022/09/13 02:30:39;;;;;;;29.85;12.43;;;;;;;;;;4970631;28;20047;-65
2022/09/13 02:33:21;;;;;;;32.28;13.18;;;;;;;;;;4990277;28;20046;-65
2022/09/13 02:36:06;;;;;;;29.55;12.40;;;;;;;;;;4936656;29;20051;-66
2022/09/13 02:39:00;;;;;;;31.15;12.52;;;;;;;;;;4970408;28;20054;-65
2022/09/13 02:41:48;;;;;;;27.63;12.10;;;;;;;;;;4885068;29;20087;-66
2022/09/13 02:45:00;;;;;;;29.50;11.90;;;;;;;;;;4932059;29;20051;-65
2022/09/13 02:47:42;;;;;;;27.02;11.20;;;;;;;;;;4951394;29;20055;-66
2022/09/13 02:50:29;;;;;;;31.05;11.38;;;;;;;;;;4927906;29;20579;-65
2022/09/13 02:53:14;;;;;;;27.73;11.65;;;;;;;;;;4912791;29;20048;-66
2022/09/13 02:56:06;;;;;;;28.20;12.45;;;;;;;;;;4913074;29;20495;-65
2022/09/13 02:58:42;;;;;;;31.40;12.00;;;;;;;;;;4897127;29;20059;-65
2022/09/13 03:01:14;;;;;;;25.85;11.13;;;;;;;;;;4894431;29;20532;-65
2022/09/13 03:03:44;;;;;;;29.02;11.90;;;;;;;;;;4924849;29;20057;-64
2022/09/13 03:06:25;;;;;;;29.83;11.90;;;;;;;;;;4894536;29;20060;-64
2022/09/13 03:08:59;;;;;;;27.75;12.13;;;;;;;;;;4878819;29;20501;-65
2022/09/13 03:11:52;;;;;;;27.40;11.63;;;;;;;;;;4909005;29;20060;-64
2022/09/13 03:15:07;;;;;;;31.95;12.50;;;;;;;;;;4913032;29;20060;-64
2022/09/13 03:17:46;;;;;;;29.35;10.52;;;;;;;;;;4933289;29;20552;-65
2022/09/13 03:20:30;;;;;;;;;;;;;;;;;;4951617;29;20055;-65
2022/09/13 03:23:12;;;;;;;29.92;10.82;;;;;;;;;;4947900;29;19931;-64
2022/09/13 03:26:19;;;;;;;26.27;10.50;;;;;;;;;;4970225;28;20423;-64
2022/09/13 03:29:18;;;;;;;28.98;11.30;;;;;;;;;;4931935;29;20055;-64
2022/09/13 03:32:05;;;;;;;28.00;11.07;;;;;;;;;;4912733;29;20176;-64
2022/09/13 03:34:45;;;;;;;26.23;11.30;;;;;;;;;;4912873;29;20052;-65
2022/09/13 03:37:32;;;;;;;29.80;11.57;;;;;;;;;;4896847;29;20056;-67
2022/09/13 03:40:14;;;;;;;28.27;11.02;;;;;;;;;;4881288;29;20564;-65
2022/09/13 03:42:59;;;;;;;28.15;11.05;;;;;;;;;;4912631;29;20111;-64
2022/09/13 03:45:34;;;;;;;28.45;11.07;;;;;;;;;;4881429;29;20060;-65
2022/09/13 03:48:06;;;;;;;26.70;10.55;;;;;;;;;;4881619;29;20441;-64
2022/09/13 03:50:36;;;;;;;32.35;11.55;;;;;;;;;;4914584;28;20409;-65
2022/09/13 03:53:11;;;;;;;25.15;11.15;;;;;;;;;;4922270;28;20418;-64
2022/09/13 03:55:42;;;;;;;26.48;11.02;;;;;;;;;;4953732;28;20055;-65
2022/09/13 03:58:15;;;;;;;25.77;10.48;;;;;;;;;;4969803;28;20054;-64
2022/09/13 04:00:47;;;;;;;27.55;10.60;;;;;;;;;;4948740;28;20422;-65
2022/09/13 04:03:17;;;;;;;29.30;11.13;;;;;;;;;;4989397;28;20050;-64
2022/09/13 04:05:49;;;;;;;26.25;10.98;;;;;;;;;;5020020;28;20064;-64
2022/09/13 04:08:19;;;;;;;26.38;11.32;;;;;;;;;;5049648;28;20052;-64
2022/09/13 04:10:51;;;;;;;28.02;11.25;;;;;;;;;;5070990;28;20037;-68
2022/09/13 04:13:21;;;;;;;30.23;11.70;;;;;;;;;;5028348;28;20042;-65
2022/09/13 04:15:53;;;;;;;31.48;10.10;;;;;;;;;;5012140;28;20433;-65
2022/09/13 04:18:23;;;;;;;25.13;10.00;;;;;;;;;;5012795;28;20058;-64
2022/09/13 04:20:59;;;;;;;27.48;10.48;;;;;;;;;;4992844;28;20046;-65
2022/09/13 04:23:30;;;;;;;28.60;10.30;;;;;;;;;;4993213;28;20065;-64
2022/09/13 04:26:05;;;;;;;27.60;10.23;;;;;;;;;;4976592;28;20054;-65
2022/09/13 04:28:35;;;;;;;27.90;10.25;;;;;;;;;;4992658;28;20058;-64
2022/09/13 04:31:05;;;;;;;27.40;11.07;;;;;;;;;;4973209;28;20062;-66
2022/09/13 04:33:36;;;;;;;26.60;10.18;;;;;;;;;;4973442;28;20059;-65
2022/09/13 04:36:06;;;;;;;23.63;10.27;;;;;;;;;;4973334;28;20058;-64
2022/09/13 04:38:37;;;;;;;28.75;10.43;;;;;;;;;;4940911;28;20062;-66
2022/09/13 04:41:09;;;;;;;24.85;10.23;;;;;;;;;;4973204;28;20062;-65
2022/09/13 04:43:39;;;;;;;24.13;9.65;;;;;;;;;;4953552;28;20050;-65
2022/09/13 04:46:09;;;;;;;21.88;10.25;;;;;;;;;;4953602;28;20051;-65
2022/09/13 04:48:39;;;;;;;29.02;10.88;;;;;;;;;;4953626;28;20059;-65
2022/09/13 04:51:09;;;;;;;22.15;9.50;;;;;;;;;;4986764;28;20430;-65
2022/09/13 04:53:40;;;;;;;23.70;10.40;;;;;;;;;;4990055;28;20057;-65
2022/09/13 04:56:12;;;;;;;23.38;9.35;;;;;;;;;;5031608;28;20493;-66
2022/09/13 04:58:43;;;;;;;27.60;10.52;;;;;;;;;;4983127;28;20056;-65
2022/09/13 05:01:13;;;;;;;25.17;10.65;;;;;;;;;;4982473;28;20437;-65
2022/09/13 05:03:44;;;;;;;25.20;10.40;;;;;;;;;;5031697;28;20436;-65
2022/09/13 05:06:19;;;;;;;25.88;10.18;;;;;;;;;;4979156;28;20042;-65
2022/09/13 05:08:54;;;;;;;24.30;10.52;;;;;;;;;;5022636;28;20057;-65
2022/09/13 05:11:25;;;;;;;25.05;9.77;;;;;;;;;;4992015;28;20046;-66
2022/09/13 05:13:58;;;;;;;26.33;10.02;;;;;;;;;;4991780;28;20058;-65
2022/09/13 05:16:33;;;;;;;23.05;10.68;;;;;;;;;;4959808;28;20050;-65
2022/09/13 05:19:04;;;;;;;22.98;10.55;;;;;;;;;;4940117;28;20063;-66
2022/09/13 05:21:34;;;;;;;31.50;10.60;;;;;;;;;;4963584;28;20049;-67
2022/09/13 05:24:05;;;;;;;26.70;10.15;;;;;;;;;;4978886;28;20379;-65
2022/09/13 05:26:35;;;;;;;25.50;11.30;;;;;;;;;;5007570;28;20070;-67
2022/09/13 05:29:05;;;;;;;26.55;10.23;;;;;;;;;;4991857;28;20062;-65
2022/09/13 05:31:39;;;;;;;26.42;9.98;;;;;;;;;;4991916;28;20062;-66
2022/09/13 05:34:16;;;;;;;27.90;10.30;;;;;;;;;;4991748;28;20388;-65
2022/09/13 05:36:49;;;;;;;24.92;10.70;;;;;;;;;;4991761;28;20094;-65
2022/09/13 05:39:22;;;;;;;23.27;9.10;;;;;;;;;;4991440;28;20053;-66
2022/09/13 05:42:11;;;;;;;25.90;9.63;;;;;;;;;;4991232;28;20054;-65
2022/09/13 05:44:42;;;;;;;26.65;9.60;;;;;;;;;;5007943;28;20061;-65
2022/09/13 05:47:13;;;;;;;28.77;10.57;;;;;;;;;;4991338;28;20054;-64
2022/09/13 05:49:43;;;;;;;22.90;9.40;;;;;;;;;;5022256;28;20062;-65
2022/09/13 05:52:33;;;;;;;23.63;10.23;;;;;;;;;;5030680;28;20429;-65
2022/09/13 05:55:04;;;;;;;23.75;10.50;;;;;;;;;;4942688;28;20046;-64
2022/09/13 05:57:36;;;;;;;26.85;10.63;;;;;;;;;;4974430;28;20081;-65
2022/09/13 06:00:07;;;;;;;23.63;9.38;;;;;;;;;;4971823;28;20054;-65
2022/09/13 06:02:40;;;;;;;29.20;9.82;;;;;;;;;;4971715;28;20526;-65
2022/09/13 06:05:12;;;;;;;25.40;10.35;;;;;;;;;;4990256;28;20057;-65
2022/09/13 06:07:43;;;;;;;23.40;10.13;;;;;;;;;;5010517;28;20154;-65
2022/09/13 06:10:13;;;;;;;25.65;10.98;;;;;;;;;;5010637;28;20050;-65
2022/09/13 06:12:43;;;;;;;24.52;9.88;;;;;;;;;;5010497;28;20057;-65
2022/09/13 06:15:14;;;;;;;22.77;9.55;;;;;;;;;;5010332;28;20050;-66
2022/09/13 06:17:44;;;;;;;27.17;10.45;;;;;;;;;;4977670;28;20065;-65
2022/09/13 06:20:15;;;;;;;24.50;10.02;;;;;;;;;;4994662;28;20062;-66
2022/09/13 06:22:46;;;;;;;22.52;9.80;;;;;;;;;;5010304;28;20045;-65
2022/09/13 06:25:17;;;;;;;21.67;9.88;;;;;;;;;;4977813;28;20633;-65
2022/09/13 06:27:47;;;;;;;27.27;9.90;;;;;;;;;;4993996;28;20058;-65
2022/09/13 06:30:18;;;;;;;29.02;9.98;;;;;;;;;;4993596;28;20050;-66
2022/09/13 06:32:48;;;;;;;30.20;10.50;;;;;;;;;;5035509;28;20056;-65
2022/09/13 06:35:19;;;;;;;27.90;11.13;;;;;;;;;;5036338;28;20067;-65
2022/09/13 06:37:49;;;;;;;26.75;9.98;;;;;;;;;;5019614;28;20059;-66
2022/09/13 06:40:21;;;;;;;23.70;10.65;;;;;;;;;;5070305;28;20163;-65
2022/09/13 06:42:53;;;;;;;24.70;9.35;;;;;;;;;;5069596;28;20419;-65
2022/09/13 06:45:23;;;;;;;23.25;10.07;;;;;;;;;;5069698;28;20385;-65
2022/09/13 06:47:54;;;;;;;23.33;10.05;;;;;;;;;;5069619;28;20416;-66
2022/09/13 06:50:25;;;;;;;23.63;9.73;;;;;;;;;;5069755;28;20072;-65
2022/09/13 06:52:57;;;;;;;24.70;10.38;;;;;;;;;;5070082;28;20405;-65
2022/09/13 06:55:28;;;;;;;23.10;9.77;;;;;;;;;;5072012;28;20068;-65
2022/09/13 06:57:58;;;;;;;24.17;9.70;;;;;;;;;;5071656;28;20043;-67
2022/09/13 07:00:28;;;;;;;23.10;9.40;;;;;;;;;;5071625;28;20049;-65
2022/09/13 07:02:58;;;;;;;22.42;9.57;;;;;;;;;;5071501;28;20411;-65
2022/09/13 07:05:28;;;;;;;24.73;10.15;;;;;;;;;;5071712;28;20087;-66
2022/09/13 07:07:58;;;;;;;23.27;10.15;;;;;;;;;;5048856;28;20491;-66
2022/09/13 07:10:28;;;;;;;23.90;9.60;;;;;;;;;;5032835;28;20060;-65
2022/09/13 07:12:58;;;;;;;25.35;10.10;;;;;;;;;;5032824;28;20061;-65
2022/09/13 07:15:28;;;;;;;24.15;9.75;;;;;;;;;;5049282;28;20060;-65
2022/09/13 07:17:58;;;;;;;21.60;9.40;;;;;;;;;;5048537;28;20053;-66
2022/09/13 07:20:28;;;;;;;23.90;9.57;;;;;;;;;;5049144;28;20053;-65
2022/09/13 07:22:58;;;;;;;23.15;9.57;;;;;;;;;;5049045;28;20432;-65
2022/09/13 07:25:28;;;;;;;25.67;9.25;;;;;;;;;;5048933;28;20444;-68
2022/09/13 07:27:58;;;;;;;23.27;10.45;;;;;;;;;;5049015;28;20508;-68
2022/09/13 07:30:28;;;;;;;25.70;9.50;;;;;;;;;;5048676;28;20049;-65
2022/09/13 07:32:58;;;;;;;24.27;9.88;;;;;;;;;;5028698;28;20064;-68
2022/09/13 07:35:28;;;;;;;22.48;9.27;;;;;;;;;;5029041;28;20065;-66
2022/09/13 07:37:58;;;;;;;24.33;9.77;;;;;;;;;;4976355;28;20487;-65
2022/09/13 07:40:28;;;;;;;24.35;9.48;;;;;;;;;;4969685;28;20081;-65
2022/09/13 07:42:58;;;;;;;23.52;10.40;;;;;;;;;;4946883;28;20052;-67
2022/09/13 08:07:13;;;;;;;26.08;9.57;;;;;;;;;;4914901;29;20535;-65
2022/09/13 08:09:43;;;;;;;20.50;8.80;;;;;;;;;;4935333;29;20059;-66
2022/09/13 08:12:13;;;;;;;21.77;8.82;;;;;;;;;;4935312;29;20064;-65
2022/09/13 08:14:43;;;;;;;26.23;10.43;;;;;;;;;;4937768;29;20071;-64
2022/09/13 08:17:13;;;;;;;24.50;10.05;;;;;;;;;;4961635;28;20055;-65
2022/09/13 08:19:42;;;;;;;23.50;9.52;;;;;;;;;;4982589;28;20049;-65
2022/09/13 08:22:13;;;;;;;25.48;9.93;;;;;;;;;;5004520;28;20057;-64
2022/09/13 08:24:42;;;;;;;22.77;10.30;;;;;;;;;;5038982;28;20064;-65
2022/09/13 08:27:12;;;;;;;26.30;10.80;;;;;;;;;;5072487;28;20052;-65
2022/09/13 08:29:43;;;;;;;22.67;9.73;;;;;;;;;;4979913;28;20061;-65
2022/09/13 08:32:12;;;;;;;23.98;9.80;;;;;;;;;;5012485;28;20074;-65
2022/09/13 08:34:42;;;;;;;24.40;10.77;;;;;;;;;;4996238;28;20062;-64
2022/09/13 08:37:12;;;;;;;26.95;10.63;;;;;;;;;;4996345;28;20058;-65
2022/09/13 08:39:42;;;;;;;24.15;10.02;;;;;;;;;;5012495;28;20490;-65
2022/09/13 08:42:38;;;;;;;22.73;9.85;;;;;;;;;;5012131;28;20437;-66
2022/09/13 08:45:08;;;;;;;24.10;9.73;;;;;;;;;;5012463;28;20064;-65
2022/09/13 08:47:47;;;;;;;22.42;10.23;;;;;;;;;;5012142;28;20485;-67
2022/09/13 08:50:23;;;;;;;23.08;9.50;;;;;;;;;;5012374;28;20046;-65
2022/09/13 08:53:17;;;;;;;24.20;9.88;;;;;;;;;;5009553;28;20517;-66
2022/09/13 08:56:14;;;;;;;24.67;10.10;;;;;;;;;;4983038;28;20064;-66
2022/09/13 08:59:03;;;;;;;26.02;9.80;;;;;;;;;;5032029;28;20057;-65
2022/09/13 09:01:58;;;;;;;22.85;10.55;;;;;;;;;;5018003;28;20049;-65
2022/09/13 09:04:56;;;;;;;25.00;10.13;;;;;;;;;;5035126;28;20053;-65
2022/09/13 09:07:30;;;;;;;20.30;9.20;;;;;;;;;;5072412;28;20527;-64
2022/09/13 09:10:17;;;;;;;23.10;10.20;;;;;;;;;;5041432;28;20056;-65
2022/09/13 09:12:57;;;;;;;22.65;10.38;;;;;;;;;;5074896;28;20514;-65
2022/09/13 09:15:34;;;;;;;24.60;10.52;;;;;;;;;;5058126;28;20067;-65
2022/09/13 09:18:25;;;;;;;24.13;9.80;;;;;;;;;;5091640;28;20455;-66
2022/09/13 09:21:02;;;;;;;25.42;10.32;;;;;;;;;;5050959;28;20045;-65
2022/09/13 09:23:49;;;;;;;24.60;10.07;;;;;;;;;;5018213;28;20048;-65
2022/09/13 09:26:25;;;;;;;22.50;9.75;;;;;;;;;;5001519;28;20508;-65
2022/09/13 09:28:57;;;;;;;25.83;10.45;;;;;;;;;;5051170;28;20048;-65
2022/09/13 09:31:51;;;;;;;20.70;9.82;;;;;;;;;;5051124;28;20048;-64
2022/09/13 09:34:28;;;;;;;25.08;10.20;;;;;;;;;;5051195;28;20053;-65
2022/09/13 09:37:08;;;;;;;21.08;9.77;;;;;;;;;;5017975;28;20060;-65
2022/09/13 09:39:39;;;;;;;23.95;10.13;;;;;;;;;;5050757;28;20084;-65
2022/09/13 09:42:16;;;;;;;21.50;9.18;;;;;;;;;;5051090;28;20452;-64
2022/09/13 09:44:50;;;;;;;26.85;9.65;;;;;;;;;;5035009;28;20079;-64
2022/09/13 09:47:28;;;;;;;21.85;10.05;;;;;;;;;;5050592;28;20045;-64
2022/09/13 09:50:16;;;;;;;22.65;9.60;;;;;;;;;;5017559;28;20053;-66
2022/09/13 09:53:04;;;;;;;23.05;9.75;;;;;;;;;;4991131;28;20521;-64
2022/09/13 09:55:44;;;;;;;22.35;9.43;;;;;;;;;;4991477;28;20533;-64
2022/09/13 09:58:15;;;;;;;23.23;10.23;;;;;;;;;;5017425;28;20046;-64
2022/09/13 10:00:57;;;;;;;24.17;10.40;;;;;;;;;;5030788;28;20065;-66
2022/09/13 10:03:33;;;;;;;24.83;9.82;;;;;;;;;;5030373;28;20050;-64
2022/09/13 10:06:24;;;;;;;25.90;9.32;;;;;;;;;;5030534;28;20064;-66
2022/09/13 10:08:59;;;;;;;26.63;10.55;;;;;;;;;;5030376;28;20061;-64
2022/09/13 10:11:47;;;;;;;24.50;10.32;;;;;;;;;;5030102;28;20053;-64
2022/09/13 10:14:46;;;;;;;24.95;9.93;;;;;;;;;;5030385;28;20112;-65
2022/09/13 10:17:26;;;;;;;25.00;9.60;;;;;;;;;;4952091;28;20067;-65
2022/09/13 10:20:03;;;;;;;25.60;10.32;;;;;;;;;;4932786;29;20054;-64
2022/09/13 10:22:33;;;;;;;25.02;9.95;;;;;;;;;;4901396;29;20048;-65
2022/09/13 10:25:24;;;;;;;23.75;9.85;;;;;;;;;;4932719;29;20056;-64
2022/09/13 10:27:58;;;;;;;25.30;10.32;;;;;;;;;;4933044;29;20523;-65
2022/09/13 10:30:40;;;;;;;21.70;9.77;;;;;;;;;;4911206;29;20059;-65
2022/09/13 10:33:33;;;;;;;21.55;9.52;;;;;;;;;;4951994;29;21066;-65
2022/09/13 10:36:26;;;;;;;25.08;10.25;;;;;;;;;;4974245;28;20058;-64
2022/09/13 10:39:20;;;;;;;24.38;10.20;;;;;;;;;;4951691;29;20503;-64
2022/09/13 10:42:08;;;;;;;22.50;9.93;;;;;;;;;;4913284;29;20048;-66
2022/09/13 10:45:00;;;;;;;23.05;10.00;;;;;;;;;;4867038;29;20056;-64
2022/09/13 10:47:38;;;;;;;23.17;9.55;;;;;;;;;;4932357;29;20064;-64
2022/09/13 10:50:30;;;;;;;25.65;10.05;;;;;;;;;;4894423;29;20064;-64
2022/09/13 10:53:04;;;;;;;24.27;9.27;;;;;;;;;;4895493;29;20052;-65
2022/09/13 10:55:39;;;;;;;24.30;9.60;;;;;;;;;;4900889;29;20074;-65
2022/09/13 10:58:09;;;;;;;24.25;10.00;;;;;;;;;;4975149;28;20063;-64
2022/09/13 11:00:55;;;;;;;23.33;10.48;;;;;;;;;;4951142;28;20127;-64
2022/09/13 11:03:42;;;;;;;21.30;9.27;;;;;;;;;;4951372;28;20074;-64
2022/09/13 11:06:28;;;;;;;20.33;9.50;;;;;;;;;;4951676;28;20059;-64
2022/09/13 11:09:09;;;;;;;22.30;9.80;;;;;;;;;;4912498;29;20052;-68
2022/09/13 11:12:01;;;;;;;20.98;9.52;;;;;;;;;;4912947;29;20064;-64
2022/09/13 11:14:50;;;;;;;26.08;9.95;;;;;;;;;;4913170;29;20060;-65
2022/09/13 11:17:32;;;;;;;22.02;9.40;;;;;;;;;;4938349;28;20063;-64
2022/09/13 11:20:17;;;;;;;25.00;9.50;;;;;;;;;;4935722;28;20055;-65
2022/09/13 11:23:24;;;;;;;20.38;8.45;;;;;;;;;;4954378;28;20051;-64
2022/09/13 11:26:27;;;;;;;19.95;8.43;;;;;;;;;;4922490;28;20050;-65
2022/09/13 11:29:19;;;;;;;19.10;8.32;;;;;;;;;;4989589;28;20058;-65
2022/09/13 11:32:12;;;;;;;19.40;8.38;;;;;;;;;;4970081;28;20435;-65
2022/09/13 11:34:53;;;;;;;21.63;8.82;;;;;;;;;;4913057;29;20067;-65
2022/09/13 11:38:00;;;;;;;20.27;9.13;;;;;;;;;;4933581;29;20059;-65
2022/09/13 11:40:36;;;;;;;19.80;7.55;;;;;;;;;;4915582;29;20489;-66
2022/09/13 11:43:21;;;;;;;19.00;8.75;;;;;;;;;;4931753;29;20068;-65
2022/09/13 11:45:51;;;;;;;18.77;8.10;;;;;;;;;;4935111;29;20415;-65
2022/09/13 11:48:25;;;;;;;20.00;8.93;;;;;;;;;;4951027;29;20431;-65
2022/09/13 11:51:05;;;;;;;18.65;7.82;;;;;;;;;;4950748;29;20511;-65
2022/09/13 11:53:44;;;;;;;17.35;6.80;;;;;;;;;;4950779;29;20056;-65
2022/09/13 11:56:39;;;;;;;14.93;7.10;;;;;;;;;;4950853;29;20090;-65
2022/09/13 11:59:31;;;;;;;18.55;7.55;;;;;;;;;;4935055;29;20059;-65
2022/09/13 12:02:23;;;;;;;18.27;7.20;;;;;;;;;;4922837;29;20051;-65
2022/09/13 12:05:14;;;;;;;16.77;7.35;;;;;;;;;;4934978;29;20062;-65
2022/09/13 12:08:01;;;;;;;19.23;7.38;;;;;;;;;;4950672;28;20411;-65
2022/09/13 12:10:41;;;;;;;18.98;7.32;;;;;;;;;;4950633;29;20163;-65
2022/09/13 12:13:28;;;;;;;17.70;7.20;;;;;;;;;;4969955;28;20545;-65
2022/09/13 12:16:08;;;;;;;18.48;7.65;;;;;;;;;;4971771;28;20069;-66
2022/09/13 12:18:48;;;;;;;18.85;7.03;;;;;;;;;;5017160;28;20057;-66
2022/09/13 12:21:40;;;;;;;16.92;7.00;;;;;;;;;;5028679;28;20057;-66
2022/09/13 12:24:24;;;;;;;16.20;7.15;;;;;;;;;;5028540;28;20409;-66
2022/09/13 12:27:01;;;;;;;17.15;6.97;;;;;;;;;;5028477;28;20556;-66
2022/09/13 12:29:55;;;;;;;18.95;7.82;;;;;;;;;;4979707;28;20056;-67
2022/09/13 12:32:27;;;;;;;15.93;6.70;;;;;;;;;;4950674;29;20055;-66
2022/09/13 12:35:04;;;;;;;20.00;7.38;;;;;;;;;;4950960;28;20066;-66
2022/09/13 12:38:06;;;;;;;15.35;6.32;;;;;;;;;;4922450;29;20621;-66
2022/09/13 12:41:23;;;;;;;15.52;7.15;;;;;;;;;;4916083;29;20443;-67
2022/09/13 12:43:55;;;;;;;;;;;;;;;;;;4935299;29;20059;-67
2022/09/13 12:46:56;;;;;;;14.88;6.50;;;;;;;;;;4903283;29;19923;-66
2022/09/13 12:50:06;;;;;;;12.73;5.78;;;;;;;;;;4915517;29;20563;-66
2022/09/13 12:53:12;;;;;;;16.30;6.47;;;;;;;;;;4915637;29;20056;-68
2022/09/13 12:56:03;;;;;;;13.98;6.88;;;;;;;;;;4877736;29;20525;-66
2022/09/13 12:58:51;;;;;;;;;;;;;;;;;;4878448;29;20067;-66
2022/09/13 13:01:28;;;;;;;16.48;7.22;;;;;;;;;;4878203;29;19931;-66
2022/09/13 13:04:03;;;;;;;13.88;6.85;;;;;;;;;;4867740;29;20076;-67
2022/09/13 13:07:11;;;;;;;15.32;7.03;;;;;;;;;;4835264;29;20092;-66
2022/09/13 13:09:46;;;;;;;21.42;8.02;;;;;;;;;;4851342;29;20061;-67
2022/09/13 13:12:39;;;;;;;15.82;7.63;;;;;;;;;;4843999;29;20069;-67
2022/09/13 13:15:16;;;;;;;18.58;8.43;;;;;;;;;;4840441;29;20057;-66
2022/09/13 13:17:49;;;;;;;22.25;11.77;;;;;;;;;;4822109;29;20054;-67
2022/09/13 13:20:52;;;;;;;20.95;10.80;;;;;;;;;;4871513;29;20072;-67
2022/09/13 13:23:25;;;;;;;16.90;8.88;;;;;;;;;;4831179;29;20053;-67
2022/09/13 13:26:01;;;;;;;18.05;8.10;;;;;;;;;;4878452;29;20048;-66
2022/09/13 13:28:44;;;;;;;19.80;8.98;;;;;;;;;;4915212;29;20063;-67
2022/09/13 13:31:28;;;;;;;17.15;8.38;;;;;;;;;;4915436;29;20142;-67
2022/09/13 13:34:09;;;;;;;18.23;8.73;;;;;;;;;;4929260;29;20051;-67
2022/09/13 13:36:40;;;;;;;19.02;9.77;;;;;;;;;;4934046;29;20055;-67
2022/09/13 13:39:25;;;;;;;14.77;6.75;;;;;;;;;;4934033;29;20051;-67
2022/09/13 13:41:59;;;;;;;20.20;9.07;;;;;;;;;;4933925;29;20063;-67
2022/09/13 13:44:30;;;;;;;17.38;8.85;;;;;;;;;;4933839;29;20051;-67
2022/09/13 13:47:06;;;;;;;18.83;9.25;;;;;;;;;;4973207;28;20066;-67
2022/09/13 13:49:39;;;;;;;20.65;9.10;;;;;;;;;;5011345;28;20062;-67
2022/09/13 13:52:33;;;;;;;25.50;12.82;;;;;;;;;;5020414;28;20061;-67
2022/09/13 13:55:40;;;;;;;15.68;7.88;;;;;;;;;;5028359;28;20064;-67
2022/09/13 13:58:26;;;;;;;18.92;9.70;;;;;;;;;;5072948;28;20055;-67
2022/09/13 14:00:59;;;;;;;25.38;13.45;;;;;;;;;;5070142;28;20052;-67
2022/09/13 14:03:58;;;;;;;17.58;8.85;;;;;;;;;;5037311;28;20044;-67
2022/09/13 14:06:54;;;;;;;16.52;7.35;;;;;;;;;;5070451;28;20052;-67
2022/09/13 14:09:41;;;;;;;14.35;8.07;;;;;;;;;;5070184;28;20064;-67
2022/09/13 14:12:41;;;;;;;14.25;6.43;;;;;;;;;;5070839;28;20052;-67
2022/09/13 14:15:26;;;;;;;16.15;7.22;;;;;;;;;;5017278;28;20052;-69
2022/09/13 14:18:17;;;;;;;17.27;7.85;;;;;;;;;;5050342;28;20386;-68
2022/09/13 14:21:02;;;;;;;15.65;5.45;;;;;;;;;;5050162;28;20090;-68
2022/09/13 14:23:33;;;;;;;18.02;7.43;;;;;;;;;;4992862;28;20059;-68
2022/09/13 14:26:05;;;;;;;13.50;6.93;;;;;;;;;;5006390;28;20569;-68
2022/09/13 14:28:36;;;;;;;15.18;7.05;;;;;;;;;;4995433;28;20054;-70
2022/09/13 14:31:06;;;;;;;16.17;7.40;;;;;;;;;;4982251;28;20054;-70
2022/09/13 14:33:37;;;;;;;14.32;6.68;;;;;;;;;;4977207;28;20061;-68
2022/09/13 14:36:19;;;;;;;18.48;7.22;;;;;;;;;;4981482;28;20507;-68
2022/09/13 14:38:58;;;;;;;17.80;7.00;;;;;;;;;;4990125;28;20066;-69
2022/09/13 14:41:34;;;;;;;16.63;7.40;;;;;;;;;;4979558;28;20055;-69
2022/09/13 14:44:33;;;;;;;12.15;6.00;;;;;;;;;;4973847;28;20069;-69
2022/09/13 14:47:19;;;;;;;14.65;5.80;;;;;;;;;;4920555;29;20063;-68
2022/09/13 14:50:04;;;;;;;16.80;6.75;;;;;;;;;;4908411;29;20070;-70
2022/09/13 14:52:52;;;;;;;17.40;7.40;;;;;;;;;;4914914;29;20050;-69
2022/09/13 14:55:33;;;;;;;15.95;6.70;;;;;;;;;;4932560;29;20056;-64
2022/09/13 14:58:08;;;;;;;11.38;4.85;;;;;;;;;;4900941;29;20672;-63
2022/09/13 15:00:49;;;;;;;16.48;6.47;;;;;;;;;;4922273;29;20059;-63
2022/09/13 15:03:20;;;;;;;12.90;5.38;;;;;;;;;;4967021;28;20047;-63
2022/09/13 15:05:53;;;;;;;13.63;6.13;;;;;;;;;;4951527;29;20459;-64
2022/09/13 15:08:32;;;;;;;13.82;7.45;;;;;;;;;;4958320;28;20478;-65
2022/09/13 15:11:11;;;;;;;16.02;8.25;;;;;;;;;;4970593;28;20066;-63
2022/09/13 15:13:44;;;;;;;15.05;6.80;;;;;;;;;;4989712;28;20154;-64
2022/09/13 15:16:30;;;;;;;21.65;7.30;;;;;;;;;;4989704;28;20138;-64
2022/09/13 15:19:37;;;;;;;13.05;5.85;;;;;;;;;;4990094;28;20077;-63
2022/09/13 15:22:22;;;;;;;11.60;6.22;;;;;;;;;;4996417;28;20069;-64
2022/09/13 15:24:54;;;;;;;12.23;6.47;;;;;;;;;;4957634;28;20502;-65
2022/09/13 15:27:28;;;;;;;15.00;6.68;;;;;;;;;;4990027;28;20752;-64
2022/09/13 15:30:02;;;;;;;14.32;6.47;;;;;;;;;;4989805;28;20213;-63
2022/09/13 15:32:44;;;;;;;19.15;6.78;;;;;;;;;;4990267;28;20085;-63
2022/09/13 15:35:23;;;;;;;15.32;6.00;;;;;;;;;;4989834;28;20200;-67
2022/09/13 15:38:16;;;;;;;14.60;7.35;;;;;;;;;;4973844;28;20458;-64
2022/09/13 15:41:13;;;;;;;15.27;6.53;;;;;;;;;;4965526;28;20050;-64
2022/09/13 15:43:47;;;;;;;11.43;6.18;;;;;;;;;;5009228;28;20057;-63
2022/09/13 15:46:18;;;;;;;13.48;6.80;;;;;;;;;;5009029;28;20093;-63
2022/09/13 15:48:57;;;;;;;11.93;6.10;;;;;;;;;;4970211;28;20507;-63
2022/09/13 15:51:28;;;;;;;12.52;6.32;;;;;;;;;;4959782;28;20062;-63
2022/09/13 15:53:58;;;;;;;14.02;5.85;;;;;;;;;;4931409;29;20103;-63
2022/09/13 15:56:32;;;;;;;12.80;6.13;;;;;;;;;;4908266;29;20053;-63